createdAt,value
2022-10-05T00:01:24.245Z,4.82
2022-10-05T00:05:20.209Z,4.75
2022-10-05T00:09:02.119Z,5.90
2022-10-05T00:12:48.375Z,9.35
2022-10-05T00:16:30.281Z,5.32
2022-10-05T00:20:22.570Z,5.97
2022-10-05T00:24:10.551Z,5.35
2022-10-05T00:28:00.503Z,7.03
2022-10-05T00:31:42.381Z,5.95
2022-10-05T00:35:24.541Z,10.05
2022-10-05T00:39:06.563Z,7.75
2022-10-05T00:43:10.264Z,6.05
2022-10-05T00:46:58.369Z,5.22
2022-10-05T00:50:43.373Z,6.82
2022-10-05T00:54:42.519Z,8.65
2022-10-05T00:58:49.869Z,7.00
2022-10-05T01:02:46.177Z,11.05
2022-10-05T01:06:50.965Z,6.45
2022-10-05T01:10:45.429Z,10.43
2022-10-05T01:14:47.904Z,6.90
2022-10-05T01:18:50.956Z,12.88
2022-10-05T01:23:06.929Z,6.43
2022-10-05T01:27:00.717Z,7.70
2022-10-05T01:30:52.018Z,4.65
2022-10-05T01:35:01.198Z,5.55
2022-10-05T01:38:59.778Z,8.15
2022-10-05T01:42:51.339Z,7.30
2022-10-05T01:46:39.072Z,3.40
2022-10-05T01:50:52.279Z,8.93
2022-10-05T01:54:45.204Z,8.05
2022-10-05T01:58:58.126Z,6.80
2022-10-05T02:02:54.980Z,7.28
2022-10-05T02:06:41.896Z,11.57
2022-10-05T02:10:37.473Z,8.30
2022-10-05T02:14:24.526Z,5.38
2022-10-05T02:18:18.071Z,9.32
2022-10-05T02:22:05.347Z,7.68
2022-10-05T02:25:49.531Z,8.35
2022-10-05T02:29:34.985Z,8.75
2022-10-05T02:33:29.967Z,8.70
2022-10-05T02:37:20.579Z,8.02
2022-10-05T02:41:29.642Z,7.43
2022-10-05T02:45:40.822Z,8.05
2022-10-05T02:49:49.046Z,8.77
2022-10-05T02:53:56.241Z,9.10
2022-10-05T02:57:53.192Z,8.73
2022-10-05T03:01:57.123Z,7.55
2022-10-05T03:05:53.265Z,7.32
2022-10-05T03:09:44.315Z,8.98
2022-10-05T03:13:54.848Z,6.57
2022-10-05T03:17:52.388Z,6.70
2022-10-05T03:22:16.927Z,9.35
2022-10-05T03:26:24.995Z,8.18
2022-10-05T03:30:13.001Z,7.10
2022-10-05T03:34:06.546Z,9.35
2022-10-05T03:38:14.403Z,9.00
2022-10-05T03:42:23.415Z,12.13
2022-10-05T03:46:27.974Z,7.30
2022-10-05T03:50:22.095Z,8.27
2022-10-05T03:54:19.638Z,13.05
2022-10-05T03:58:16.167Z,12.73
2022-10-05T04:02:06.684Z,8.27
2022-10-05T04:05:59.802Z,8.48
2022-10-05T04:09:45.690Z,5.90
2022-10-05T04:13:46.753Z,10.00
2022-10-05T04:17:33.533Z,5.80
2022-10-05T04:25:17.905Z,5.15
2022-10-05T04:29:05.542Z,10.93
2022-10-05T04:32:54.137Z,6.13
2022-10-05T04:36:45.281Z,9.27
2022-10-05T04:41:05.371Z,7.95
2022-10-05T04:45:13.533Z,10.90
2022-10-05T04:48:58.159Z,9.02
2022-10-05T04:53:08.835Z,7.65
2022-10-05T04:56:58.529Z,5.15
2022-10-05T05:01:01.736Z,8.93
2022-10-05T05:04:55.617Z,7.85
2022-10-05T05:08:49.466Z,6.68
2022-10-05T05:12:41.594Z,9.70
2022-10-05T05:16:35.321Z,5.88
2022-10-05T05:20:59.825Z,7.70
2022-10-05T05:25:20.805Z,5.32
2022-10-05T05:29:26.201Z,11.85
2022-10-05T05:33:31.322Z,13.75
2022-10-05T05:38:00.717Z,7.45
2022-10-05T05:42:01.101Z,8.98
2022-10-05T05:46:02.918Z,13.25
2022-10-05T05:50:10.337Z,5.85
2022-10-05T05:54:14.584Z,9.40
2022-10-05T05:58:38.653Z,8.68
2022-10-05T06:02:26.497Z,11.25
2022-10-05T06:06:15.807Z,11.60
2022-10-05T06:10:05.670Z,13.43
2022-10-05T06:13:48.486Z,12.48
2022-10-05T06:17:58.051Z,12.52
2022-10-05T06:21:53.406Z,11.82
2022-10-05T06:25:55.592Z,11.65
2022-10-05T06:29:46.158Z,10.23
2022-10-05T06:34:03.117Z,11.85
2022-10-05T06:38:22.228Z,17.35
2022-10-05T06:42:42.019Z,12.70
2022-10-05T06:46:36.101Z,7.90
2022-10-05T06:50:26.883Z,11.40
2022-10-05T06:54:36.625Z,10.73
2022-10-05T06:58:44.611Z,17.73
2022-10-05T07:02:37.600Z,11.25
2022-10-05T07:06:34.250Z,9.32
2022-10-05T07:14:14.719Z,14.88
2022-10-05T07:18:50.095Z,13.95
2022-10-05T07:22:40.491Z,13.25
2022-10-05T07:26:33.058Z,16.13
2022-10-05T07:30:16.166Z,16.63
2022-10-05T07:34:09.265Z,12.30
2022-10-05T07:37:55.617Z,13.57
2022-10-05T07:42:18.985Z,13.18
2022-10-05T07:46:11.232Z,10.43
2022-10-05T07:50:24.044Z,13.27
2022-10-05T07:54:15.676Z,11.18
2022-10-05T07:58:09.463Z,12.23
2022-10-05T08:01:59.663Z,10.70
2022-10-05T08:05:45.242Z,10.30
2022-10-05T08:09:38.973Z,11.32
2022-10-05T08:13:44.604Z,13.02
2022-10-05T08:17:38.733Z,15.00
2022-10-05T08:21:40.042Z,11.82
2022-10-05T08:25:59.118Z,16.85
2022-10-05T08:30:01.462Z,16.65
2022-10-05T08:34:02.959Z,16.52
2022-10-05T08:37:46.262Z,18.55
2022-10-05T08:41:46.830Z,11.15
2022-10-05T08:45:42.961Z,16.13
2022-10-05T08:49:49.453Z,12.43
2022-10-05T08:53:45.944Z,16.05
2022-10-05T09:01:59.670Z,10.35
2022-10-05T09:06:14.616Z,20.92
2022-10-05T09:10:15.010Z,9.70
2022-10-05T09:14:15.750Z,12.27
2022-10-05T09:18:25.596Z,12.95
2022-10-05T09:22:35.389Z,17.80
2022-10-05T09:26:54.832Z,13.23
2022-10-05T09:30:39.606Z,11.73
2022-10-05T09:34:37.069Z,8.52
2022-10-05T09:38:50.379Z,11.52
2022-10-05T09:42:56.578Z,7.35
2022-10-05T09:47:09.140Z,3.15
2022-10-05T09:51:12.770Z,3.05
2022-10-05T09:55:05.530Z,3.08
2022-10-05T09:59:07.583Z,5.10
2022-10-05T10:03:28.889Z,3.38
2022-10-05T10:07:54.158Z,2.80
2022-10-05T10:11:55.979Z,1.90
2022-10-05T10:16:06.211Z,2.25
2022-10-05T10:20:06.745Z,1.15
2022-10-05T10:24:22.386Z,0.95
2022-10-05T10:28:26.238Z,1.15
2022-10-05T10:32:10.851Z,0.52
2022-10-05T10:36:18.867Z,2.08
2022-10-05T10:40:42.196Z,1.95
2022-10-05T10:44:44.322Z,0.95
2022-10-05T10:48:28.866Z,3.55
2022-10-05T10:52:47.706Z,1.50
2022-10-05T10:57:04.904Z,1.35
2022-10-05T11:01:04.834Z,3.38
2022-10-05T11:05:14.663Z,1.70
2022-10-05T11:09:28.990Z,4.03
2022-10-05T11:13:24.796Z,2.20
2022-10-05T11:17:25.537Z,2.27
2022-10-05T11:21:13.134Z,1.27
2022-10-05T11:25:27.735Z,2.15
2022-10-05T11:29:32.591Z,2.05
2022-10-05T11:33:29.762Z,1.38
2022-10-05T11:37:31.959Z,10.98
2022-10-05T11:41:13.735Z,4.03
2022-10-05T11:45:22.057Z,4.30
2022-10-05T11:49:15.582Z,2.15
2022-10-05T11:53:13.911Z,1.40
2022-10-05T11:57:24.233Z,0.28
2022-10-05T12:01:36.548Z,1.83
2022-10-05T12:05:39.756Z,3.65
2022-10-05T12:10:10.531Z,1.65
2022-10-05T12:14:00.507Z,4.30
2022-10-05T12:18:24.456Z,2.75
2022-10-05T12:22:18.161Z,3.33
2022-10-05T12:26:05.121Z,2.90
2022-10-05T12:30:11.154Z,2.63
2022-10-05T12:34:23.860Z,1.10
2022-10-05T12:38:18.074Z,2.17
2022-10-05T12:42:09.703Z,2.72
2022-10-05T12:46:00.744Z,1.92
2022-10-05T12:50:04.206Z,2.70
2022-10-05T12:54:19.299Z,3.78
2022-10-05T12:58:13.727Z,1.52
2022-10-05T13:01:58.416Z,0.70
2022-10-05T13:05:40.199Z,3.17
2022-10-05T13:09:40.029Z,1.95
2022-10-05T13:13:43.399Z,6.38
2022-10-05T13:17:46.175Z,2.08
2022-10-05T13:21:46.313Z,2.22
2022-10-05T13:25:37.388Z,2.55
2022-10-05T13:29:25.997Z,3.72
2022-10-05T13:33:18.108Z,4.05
2022-10-05T13:37:26.318Z,1.33
2022-10-05T13:41:25.910Z,3.35
2022-10-05T13:45:55.790Z,5.18
2022-10-05T13:49:44.442Z,1.10
2022-10-05T13:53:35.511Z,4.40
2022-10-05T13:57:48.040Z,4.75
2022-10-05T14:01:48.738Z,4.45
2022-10-05T14:05:31.808Z,1.83
2022-10-05T14:09:22.630Z,3.35
2022-10-05T14:13:46.790Z,3.00
2022-10-05T14:17:41.329Z,5.03
2022-10-05T14:21:26.089Z,2.15
2022-10-05T14:25:07.868Z,2.95
2022-10-05T14:29:16.744Z,8.07
2022-10-05T14:33:04.850Z,5.40
2022-10-05T14:36:55.076Z,4.28
2022-10-05T14:40:38.090Z,2.80
2022-10-05T14:48:19.816Z,5.82
2022-10-05T14:52:27.379Z,3.63
2022-10-05T14:56:24.263Z,3.25
2022-10-05T15:00:16.635Z,3.70
2022-10-05T15:04:07.759Z,7.32
2022-10-05T15:07:51.216Z,3.50
2022-10-05T15:11:58.249Z,3.97
2022-10-05T15:16:00.238Z,8.90
2022-10-05T15:20:17.955Z,7.05
2022-10-05T15:24:12.314Z,5.80
2022-10-05T15:28:30.324Z,6.43
2022-10-05T15:32:20.715Z,3.97
2022-10-05T15:36:17.692Z,7.15
2022-10-05T15:40:15.780Z,16.02
2022-10-05T15:44:35.432Z,5.30
2022-10-05T15:48:45.383Z,11.60
2022-10-05T15:52:43.838Z,8.65
2022-10-05T15:56:36.178Z,8.35
2022-10-05T16:00:20.815Z,8.85
2022-10-05T16:04:11.314Z,9.88
2022-10-05T16:08:12.723Z,12.77
2022-10-05T16:12:22.310Z,8.70
2022-10-05T16:16:33.908Z,8.77
2022-10-05T16:20:38.380Z,6.22
2022-10-05T16:24:53.578Z,8.73
2022-10-05T16:28:53.749Z,6.60
2022-10-05T16:32:50.002Z,8.48
2022-10-05T16:36:35.748Z,8.40
2022-10-05T16:40:31.160Z,5.88
2022-10-05T16:44:31.139Z,9.75
2022-10-05T16:48:25.865Z,13.75
2022-10-05T16:52:13.834Z,14.75
2022-10-05T16:56:01.846Z,9.95
2022-10-05T17:00:17.775Z,9.95
2022-10-05T17:04:28.781Z,9.38
2022-10-05T17:08:51.174Z,12.23
2022-10-05T17:12:40.026Z,10.15
2022-10-05T17:16:59.275Z,8.38
2022-10-05T17:21:28.587Z,13.43
2022-10-05T17:25:15.110Z,10.07
2022-10-05T17:28:59.676Z,11.52
2022-10-05T17:32:58.249Z,12.35
2022-10-05T17:36:44.037Z,12.15
2022-10-05T17:40:34.325Z,11.40
2022-10-05T17:44:19.520Z,15.13
2022-10-05T17:48:06.236Z,14.73
2022-10-05T17:52:06.797Z,16.98
2022-10-05T17:56:03.364Z,16.40
2022-10-05T17:59:57.067Z,10.18
2022-10-05T18:03:41.570Z,13.85
2022-10-05T18:07:24.695Z,11.32
2022-10-05T18:11:17.129Z,14.93
2022-10-05T18:15:01.855Z,17.83
2022-10-05T18:18:43.661Z,10.35
2022-10-05T18:22:27.859Z,12.32
2022-10-05T18:26:48.604Z,14.93
2022-10-05T18:30:53.182Z,9.55
2022-10-05T18:34:49.855Z,14.57
2022-10-05T18:39:01.465Z,14.32
2022-10-05T18:42:48.516Z,18.70
2022-10-05T18:50:45.251Z,12.23
2022-10-05T18:55:00.240Z,14.52
2022-10-05T18:59:09.634Z,13.98
2022-10-05T19:03:04.013Z,16.13
2022-10-05T19:06:49.084Z,18.92
2022-10-05T19:10:39.955Z,14.23
2022-10-05T19:14:33.519Z,14.63
2022-10-05T19:18:24.445Z,14.52
2022-10-05T19:22:12.810Z,13.52
2022-10-05T19:25:59.689Z,10.75
2022-10-05T19:29:55.763Z,9.57
2022-10-05T19:33:46.220Z,10.43
2022-10-05T19:37:43.385Z,10.38
2022-10-05T19:41:35.080Z,15.32
2022-10-05T19:45:28.183Z,17.83
2022-10-05T19:49:13.455Z,12.95
2022-10-05T19:53:04.195Z,12.95
2022-10-05T19:56:52.812Z,10.90
2022-10-05T20:00:35.476Z,9.90
2022-10-05T20:04:38.181Z,16.92
2022-10-05T20:08:22.098Z,13.90
2022-10-05T20:12:04.239Z,12.35
2022-10-05T20:16:45.015Z,15.70
2022-10-05T20:20:45.785Z,14.07
2022-10-05T20:24:48.413Z,15.82
2022-10-05T20:28:31.819Z,8.85
2022-10-05T20:32:17.918Z,11.57
2022-10-05T20:36:00.315Z,11.00
2022-10-05T20:39:42.260Z,17.13
2022-10-05T20:43:24.162Z,10.18
2022-10-05T20:47:08.993Z,11.02
2022-10-05T20:50:50.937Z,15.20
2022-10-05T20:54:32.911Z,10.05
2022-10-05T20:58:14.786Z,13.27
2022-10-05T21:01:58.202Z,13.90
2022-10-05T21:05:39.994Z,16.90
2022-10-05T21:09:22.239Z,11.90
2022-10-05T21:13:04.181Z,14.73
2022-10-05T21:16:46.048Z,15.88
2022-10-05T21:20:27.911Z,11.77
2022-10-05T21:24:11.273Z,18.80
2022-10-05T21:27:54.162Z,13.98
2022-10-05T21:31:36.266Z,9.93
2022-10-05T21:35:18.233Z,16.30
2022-10-05T21:39:00.317Z,14.75
2022-10-05T21:42:42.206Z,14.85
2022-10-05T21:46:27.668Z,12.88
2022-10-05T21:50:10.282Z,11.90
2022-10-05T21:54:02.905Z,11.57
2022-10-05T21:57:46.098Z,14.00
2022-10-05T22:01:29.107Z,10.43
2022-10-05T22:05:11.031Z,11.80
2022-10-05T22:08:52.886Z,12.98
2022-10-05T22:12:34.740Z,25.35
2022-10-05T22:16:19.339Z,11.65
2022-10-05T22:20:01.916Z,20.40
2022-10-05T22:23:45.664Z,13.18
2022-10-05T22:27:29.484Z,13.15
2022-10-05T22:31:12.846Z,13.15
2022-10-05T22:34:54.720Z,9.15
2022-10-05T22:38:36.613Z,17.65
2022-10-05T22:42:18.520Z,11.93
2022-10-05T22:46:01.114Z,11.15
2022-10-05T22:49:43.052Z,10.45
2022-10-05T22:53:24.855Z,11.57
2022-10-05T22:57:06.862Z,8.23
2022-10-05T23:00:58.031Z,11.95
2022-10-05T23:04:40.914Z,11.77
2022-10-05T23:08:22.699Z,11.10
2022-10-05T23:12:04.623Z,7.38
2022-10-05T23:15:46.481Z,20.05
2022-10-05T23:19:28.283Z,7.43
2022-10-05T23:23:10.188Z,8.70
2022-10-05T23:26:52.017Z,13.00
2022-10-05T23:30:33.853Z,8.32
2022-10-05T23:34:15.686Z,11.30
2022-10-05T23:37:57.503Z,10.50
2022-10-05T23:41:39.798Z,8.98
2022-10-05T23:45:21.610Z,9.70
2022-10-05T23:49:03.604Z,8.23
2022-10-05T23:52:45.545Z,10.15
2022-10-05T23:56:27.376Z,10.15
